Time;durP1;ratioP1;P1;durP2;ratioP2;P2;SDS_P1;SDS_P2;PMS_P1;PMS_P2;Temp;Humidity;BMP_temperature;BMP_pressure;BME280_temperature;BME280_humidity;BME280_pressure;Samples;Min_cycle;Max_cycle;Signal;HPM_P1;HPM_P2
2020/12/08 12:36:35;;;;;;;14.93;10.20;;;5.70;99.90;;;;;;5631786;23;20502;-83
2020/12/08 12:42:26;;;;;;;8.90;6.20;;;5.60;99.90;;;;;;4851993;29;20529;-84
2020/12/08 12:52:25;;;;;;;22.87;13.60;;;5.60;99.90;;;;;;4805586;29;20589;-86
2020/12/08 13:08:03;;;;;;;26.97;14.90;;;5.60;99.90;;;;;;5046674;23;20887;-86
2020/12/08 13:29:47;;;;;;;17.60;10.70;;;6.10;99.90;;;;;;4882379;29;20478;-85
2020/12/08 13:32:13;;;;;;;22.90;13.93;;;6.00;99.90;;;;;;4877813;29;20875;-83
2020/12/08 13:35:22;;;;;;;25.33;14.37;;;5.90;99.90;;;;;;4864360;29;20577;-84
2020/12/08 13:37:48;;;;;;;28.90;16.43;;;5.90;99.90;;;;;;4848518;29;20212;-82
2020/12/08 13:40:14;;;;;;;30.73;16.10;;;5.80;99.90;;;;;;4866697;29;20529;-83
2020/12/08 13:42:43;;;;;;;25.00;14.57;;;5.80;99.90;;;;;;4884337;29;20226;-83
2020/12/08 13:45:09;;;;;;;26.40;14.07;;;5.80;99.90;;;;;;4868186;29;20202;-83
2020/12/08 13:51:17;;;;;;;25.47;13.30;;;5.60;99.90;;;;;;4865717;29;20473;-82
2020/12/08 13:53:43;;;;;;;23.80;13.73;;;5.50;99.90;;;;;;4868898;29;20453;-83
2020/12/08 13:56:08;;;;;;;31.93;15.77;;;5.50;99.90;;;;;;4855518;29;20457;-82
2020/12/08 13:58:34;;;;;;;30.97;16.50;;;5.50;99.90;;;;;;4835702;29;20210;-75
2020/12/08 14:01:00;;;;;;;28.87;16.07;;;5.70;99.90;;;;;;4839880;29;20305;-76
2020/12/08 14:03:26;;;;;;;30.07;14.90;;;5.80;99.90;;;;;;4874742;29;20529;-77
2020/12/08 14:05:54;;;;;;;31.43;15.53;;;5.90;99.90;;;;;;4878254;29;20216;-78
2020/12/08 14:08:21;;;;;;;27.67;14.50;;;6.00;99.90;;;;;;4862152;29;20652;-77
2020/12/08 14:10:47;;;;;;;24.17;15.43;;;6.10;99.90;;;;;;4851422;29;20813;-76
2020/12/08 14:13:13;;;;;;;22.73;14.37;;;6.10;99.90;;;;;;4872786;29;20462;-77
2020/12/08 14:15:39;;;;;;;31.23;16.43;;;6.10;99.90;;;;;;4878587;29;20517;-76
2020/12/08 14:18:05;;;;;;;26.50;15.03;;;6.20;99.90;;;;;;4874159;29;20952;-77
2020/12/08 14:20:30;;;;;;;26.00;14.23;;;6.20;99.90;;;;;;4835556;29;20310;-77
2020/12/08 14:22:56;;;;;;;26.83;15.20;;;6.10;99.90;;;;;;4871538;29;20825;-76
2020/12/08 14:25:22;;;;;;;30.20;15.67;;;6.00;99.90;;;;;;4874502;29;20189;-76
2020/12/08 15:07:49;;;;;;;27.23;16.07;;;4.30;99.90;;;;;;4903448;23;20585;-78
2020/12/08 15:10:14;;;;;;;26.83;14.40;;;4.20;99.90;;;;;;4868845;29;20612;-79
2020/12/08 15:12:40;;;;;;;35.60;13.33;;;4.20;99.90;;;;;;4862743;29;20923;-79
2020/12/08 15:15:06;;;;;;;26.13;13.77;;;4.20;99.90;;;;;;4843922;29;20708;-80
2020/12/08 15:17:47;;;;;;;27.83;15.93;;;4.20;99.90;;;;;;4839932;29;20284;-82
2020/12/08 15:20:12;;;;;;;26.27;14.70;;;4.20;99.90;;;;;;4855852;29;20741;-82
2020/12/08 15:22:38;;;;;;;21.90;11.37;;;4.10;99.90;;;;;;4853411;29;20505;-82
2020/12/08 15:25:04;;;;;;;31.27;16.40;;;4.00;99.90;;;;;;4843767;29;20206;-81
2020/12/08 15:27:30;;;;;;;27.67;16.10;;;3.90;99.90;;;;;;4854155;29;20208;-80
2020/12/08 15:29:55;;;;;;;28.30;15.03;;;3.90;99.90;;;;;;4854389;29;20208;-81
2020/12/08 15:32:21;;;;;;;32.07;14.90;;;3.80;99.90;;;;;;4839659;29;20592;-80
2020/12/08 15:34:47;;;;;;;26.83;16.10;;;3.70;99.90;;;;;;4849033;29;20246;-80
2020/12/08 15:37:18;;;;;;;32.00;16.97;;;3.70;99.90;;;;;;4832612;29;20542;-82
2020/12/08 15:39:45;;;;;;;30.53;16.87;;;3.60;99.90;;;;;;4836527;29;20198;-81
2020/12/08 15:42:10;;;;;;;23.97;13.30;;;3.50;99.90;;;;;;4870472;29;20485;-83
2020/12/08 15:44:36;;;;;;;29.57;16.07;;;3.50;99.90;;;;;;4855334;29;20454;-82
2020/12/08 16:04:41;;;;;;;30.70;15.80;;;2.90;99.90;;;;;;4850411;29;20830;-83
2020/12/08 16:07:07;;;;;;;32.00;16.60;;;2.80;99.90;;;;;;4853322;29;20869;-83
2020/12/08 16:09:35;;;;;;;31.17;15.07;;;2.80;99.90;;;;;;4855169;29;20497;-83
2020/12/08 16:12:01;;;;;;;31.60;16.30;;;2.80;99.90;;;;;;4833964;29;20486;-83
2020/12/08 16:14:27;;;;;;;26.67;15.47;;;2.80;99.90;;;;;;4851519;29;20482;-82
2020/12/08 16:17:24;;;;;;;32.00;17.60;;;2.80;99.90;;;;;;4817337;29;20458;-84
2020/12/08 16:19:49;;;;;;;34.40;16.30;;;2.80;99.90;;;;;;4853498;29;20695;-82
2020/12/08 16:22:15;;;;;;;33.27;16.50;;;2.80;99.90;;;;;;4871970;29;20450;-80
2020/12/08 16:24:41;;;;;;;39.13;17.10;;;2.80;99.90;;;;;;4855735;29;20288;-84
2020/12/08 16:27:06;;;;;;;36.20;18.40;;;2.80;99.90;;;;;;4840814;29;20200;-81
2020/12/08 16:29:32;;;;;;;29.53;15.27;;;2.80;99.90;;;;;;4841666;29;20213;-84
2020/12/08 16:32:00;;;;;;;34.50;17.73;;;2.80;99.90;;;;;;4845005;29;20649;-82
2020/12/08 16:34:29;;;;;;;27.53;14.60;;;2.80;99.90;;;;;;4858375;29;20316;-80
2020/12/08 16:36:55;;;;;;;27.37;16.13;;;2.80;99.90;;;;;;4876994;29;20435;-82
2020/12/08 16:39:20;;;;;;;29.30;16.80;;;2.70;99.90;;;;;;4844254;29;20561;-84
2020/12/08 16:41:46;;;;;;;33.30;16.60;;;2.70;99.90;;;;;;4862757;29;20189;-82
2020/12/08 16:44:12;;;;;;;33.80;18.50;;;2.70;99.90;;;;;;4843532;29;20593;-82
2020/12/08 16:46:37;;;;;;;33.10;18.33;;;2.70;99.90;;;;;;4845458;29;20244;-83
2020/12/08 16:49:03;;;;;;;32.57;16.17;;;2.70;99.90;;;;;;4860569;29;20217;-83
2020/12/08 16:51:37;;;;;;;25.63;17.53;;;2.60;99.90;;;;;;4836310;29;20273;-81
2020/12/08 16:54:04;;;;;;;31.23;14.90;;;2.60;99.90;;;;;;4859313;29;20471;-82
2020/12/08 16:56:33;;;;;;;33.87;18.20;;;2.60;99.90;;;;;;4858310;29;20823;-82
2020/12/08 16:58:59;;;;;;;36.20;18.77;;;2.60;99.90;;;;;;4875211;29;20440;-81
2020/12/08 17:01:24;;;;;;;30.47;18.60;;;2.50;99.90;;;;;;4866498;29;20568;-81
2020/12/08 17:03:50;;;;;;;35.77;19.23;;;2.50;99.90;;;;;;4843913;29;20222;-81
2020/12/08 17:06:18;;;;;;;34.40;17.23;;;2.50;99.90;;;;;;4858731;29;20197;-82
2020/12/08 17:08:44;;;;;;;31.40;16.03;;;2.50;99.90;;;;;;4875947;29;20707;-77
2020/12/08 17:11:11;;;;;;;32.97;15.90;;;2.50;99.90;;;;;;4835257;29;21049;-79
2020/12/08 17:13:38;;;;;;;32.97;16.80;;;2.50;99.90;;;;;;4856160;29;20468;-83
2020/12/08 17:16:03;;;;;;;31.40;17.17;;;2.50;99.90;;;;;;4872791;29;20521;-82
2020/12/08 17:18:29;;;;;;;31.27;17.63;;;2.40;99.90;;;;;;4826034;29;20473;-81
2020/12/08 17:20:54;;;;;;;31.97;18.17;;;2.50;99.90;;;;;;4849297;29;20220;-83
2020/12/08 17:23:20;;;;;;;31.67;17.07;;;2.50;99.90;;;;;;4837359;29;20228;-82
2020/12/08 17:25:46;;;;;;;37.50;19.00;;;2.50;99.90;;;;;;4842577;29;20699;-83
2020/12/08 17:28:12;;;;;;;35.10;17.93;;;2.50;99.90;;;;;;4825303;29;20202;-82
2020/12/08 17:30:38;;;;;;;35.80;17.30;;;2.50;99.90;;;;;;4869904;29;20271;-83
2020/12/08 17:33:04;;;;;;;34.40;16.53;;;2.60;99.90;;;;;;4859101;29;20477;-84
2020/12/08 17:35:29;;;;;;;28.30;16.30;;;2.70;99.90;;;;;;4856105;29;20221;-74
2020/12/08 17:37:55;;;;;;;36.20;17.30;;;2.70;99.90;;;;;;4871613;29;20201;-76
2020/12/08 17:40:23;;;;;;;29.07;15.10;;;2.70;99.90;;;;;;4850889;29;20700;-76
2020/12/08 17:43:29;;;;;;;29.33;17.37;;;2.90;99.90;;;;;;4838883;29;20241;-88
2020/12/08 17:53:34;;;;;;;33.30;18.30;;;3.10;99.90;;;;;;4814923;29;20615;-88
2020/12/08 17:56:47;;;;;;;36.70;17.50;;;3.30;99.90;;;;;;4801582;29;20480;-87
2020/12/08 17:59:24;;;;;;;38.87;19.63;;;3.30;99.90;;;;;;4826823;29;20444;-85
2020/12/08 20:09:07;;;;;;;41.57;20.10;;;1.60;99.90;;;;;;4877181;29;20900;-78
2020/12/08 20:11:33;;;;;;;48.87;22.23;;;1.70;99.90;;;;;;4865408;29;20589;-77
2020/12/08 20:13:59;;;;;;;47.80;20.67;;;1.90;99.90;;;;;;4859325;29;20465;-78
2020/12/08 20:24:06;;;;;;;38.90;20.90;;;2.10;99.90;;;;;;4888397;29;20513;-94
2020/12/08 20:30:34;;;;;;;43.80;20.33;;;2.10;99.90;;;;;;4850433;29;20530;-88
2020/12/08 21:35:18;;;;;;;33.00;18.60;;;3.40;99.90;;;;;;4873022;29;21040;-89
2020/12/08 21:37:54;;;;;;;37.37;20.50;;;3.30;99.90;;;;;;4876871;29;20481;-90
2020/12/08 21:43:43;;;;;;;36.43;17.80;;;3.40;99.90;;;;;;4892651;29;20453;-85
2020/12/08 21:46:16;;;;;;;37.23;17.30;;;3.40;99.90;;;;;;4844342;29;20479;-84
2020/12/08 21:49:02;;;;;;;31.50;18.20;;;3.40;99.90;;;;;;4865815;29;20232;-85
2020/12/08 23:07:01;;;;;;;31.97;17.23;;;3.70;99.90;;;;;;4880430;29;20870;-87
2020/12/08 23:10:17;;;;;;;30.77;18.97;;;3.70;99.90;;;;;;4835952;29;20423;-86
2020/12/08 23:12:50;;;;;;;32.83;17.90;;;3.70;99.90;;;;;;4880543;29;20452;-88
